Terminal Aerodrome Forecast
Issued by NWS Cleveland, OH

Home | Current Version | Previous Version | Graphics & Text | Print | Product List | Glossary On
Versions: 1 2 3 4 5 6 7 8 9 10 11 12 13 14 15 16 17 18
563
FTUS41 KCLE 231739
TAFERI
TAF
KERI 231739Z 2318/2418 30008KT P6SM SKC
     FM240000 VRB03KT P6SM SCT250
     FM241100 18005KT P6SM SCT100 BKN250
     FM241700 21007KT P6SM SCT050 BKN250=

USA.gov is the U.S. government's official web portal to all federal, state and local government web resources and services.